sensor_id;sensor_type;location;lat;lon;timestamp;P1;durP1;ratioP1;P2;durP2;ratioP2
20348;SDS011;10332;50.208;18.988;2023-04-25T00:01:47;10.77;;;8.60;;
20348;SDS011;10332;50.208;18.988;2023-04-25T00:04:14;10.95;;;9.02;;
20348;SDS011;10332;50.208;18.988;2023-04-25T00:06:43;12.13;;;9.18;;
20348;SDS011;10332;50.208;18.988;2023-04-25T00:09:10;13.20;;;10.35;;
20348;SDS011;10332;50.208;18.988;2023-04-25T00:11:38;12.70;;;9.60;;
20348;SDS011;10332;50.208;18.988;2023-04-25T00:14:06;12.57;;;10.02;;
20348;SDS011;10332;50.208;18.988;2023-04-25T00:16:34;12.27;;;9.20;;
20348;SDS011;10332;50.208;18.988;2023-04-25T00:19:08;11.68;;;8.70;;
20348;SDS011;10332;50.208;18.988;2023-04-25T00:21:37;12.68;;;10.13;;
20348;SDS011;10332;50.208;18.988;2023-04-25T00:24:07;13.93;;;11.68;;
20348;SDS011;10332;50.208;18.988;2023-04-25T00:26:35;16.50;;;12.63;;
20348;SDS011;10332;50.208;18.988;2023-04-25T00:29:02;17.08;;;13.13;;
20348;SDS011;10332;50.208;18.988;2023-04-25T00:31:30;18.08;;;12.63;;
20348;SDS011;10332;50.208;18.988;2023-04-25T00:33:57;21.13;;;13.95;;
20348;SDS011;10332;50.208;18.988;2023-04-25T00:36:25;20.80;;;15.25;;
20348;SDS011;10332;50.208;18.988;2023-04-25T00:38:52;16.98;;;13.32;;
20348;SDS011;10332;50.208;18.988;2023-04-25T00:41:21;19.75;;;15.52;;
20348;SDS011;10332;50.208;18.988;2023-04-25T00:43:50;17.35;;;13.73;;
20348;SDS011;10332;50.208;18.988;2023-04-25T00:46:20;18.40;;;13.93;;
20348;SDS011;10332;50.208;18.988;2023-04-25T00:48:47;18.45;;;14.13;;
20348;SDS011;10332;50.208;18.988;2023-04-25T00:51:21;16.95;;;13.23;;
20348;SDS011;10332;50.208;18.988;2023-04-25T00:53:49;16.98;;;13.48;;
20348;SDS011;10332;50.208;18.988;2023-04-25T00:56:18;20.83;;;14.43;;
20348;SDS011;10332;50.208;18.988;2023-04-25T00:58:47;20.35;;;14.60;;
20348;SDS011;10332;50.208;18.988;2023-04-25T01:01:17;19.23;;;14.55;;
20348;SDS011;10332;50.208;18.988;2023-04-25T01:03:44;21.33;;;15.13;;
20348;SDS011;10332;50.208;18.988;2023-04-25T01:06:13;19.48;;;14.98;;
20348;SDS011;10332;50.208;18.988;2023-04-25T01:08:41;19.92;;;14.63;;
20348;SDS011;10332;50.208;18.988;2023-04-25T01:11:08;21.27;;;15.10;;
20348;SDS011;10332;50.208;18.988;2023-04-25T01:13:35;19.98;;;14.35;;
20348;SDS011;10332;50.208;18.988;2023-04-25T01:16:03;17.55;;;13.10;;
20348;SDS011;10332;50.208;18.988;2023-04-25T01:18:31;19.27;;;12.77;;
20348;SDS011;10332;50.208;18.988;2023-04-25T01:21:06;21.05;;;14.43;;
20348;SDS011;10332;50.208;18.988;2023-04-25T01:23:37;16.88;;;12.40;;
20348;SDS011;10332;50.208;18.988;2023-04-25T01:26:10;16.20;;;11.82;;
20348;SDS011;10332;50.208;18.988;2023-04-25T01:28:39;14.10;;;10.77;;
20348;SDS011;10332;50.208;18.988;2023-04-25T01:31:08;14.13;;;10.57;;
20348;SDS011;10332;50.208;18.988;2023-04-25T01:33:36;12.25;;;9.45;;
20348;SDS011;10332;50.208;18.988;2023-04-25T01:36:04;11.18;;;7.90;;
20348;SDS011;10332;50.208;18.988;2023-04-25T01:38:32;12.10;;;8.00;;
20348;SDS011;10332;50.208;18.988;2023-04-25T01:41:00;9.13;;;7.22;;
20348;SDS011;10332;50.208;18.988;2023-04-25T01:43:28;11.10;;;7.20;;
20348;SDS011;10332;50.208;18.988;2023-04-25T01:45:56;8.50;;;6.25;;
20348;SDS011;10332;50.208;18.988;2023-04-25T01:48:24;7.97;;;6.47;;
20348;SDS011;10332;50.208;18.988;2023-04-25T01:50:51;9.95;;;6.88;;
20348;SDS011;10332;50.208;18.988;2023-04-25T01:53:19;8.63;;;5.90;;
20348;SDS011;10332;50.208;18.988;2023-04-25T01:55:46;8.00;;;6.45;;
20348;SDS011;10332;50.208;18.988;2023-04-25T01:58:14;7.60;;;6.10;;
20348;SDS011;10332;50.208;18.988;2023-04-25T02:00:42;8.23;;;5.47;;
20348;SDS011;10332;50.208;18.988;2023-04-25T02:03:09;7.43;;;5.70;;
20348;SDS011;10332;50.208;18.988;2023-04-25T02:05:37;7.53;;;5.38;;
20348;SDS011;10332;50.208;18.988;2023-04-25T02:08:09;6.88;;;5.35;;
20348;SDS011;10332;50.208;18.988;2023-04-25T02:10:37;6.13;;;4.28;;
20348;SDS011;10332;50.208;18.988;2023-04-25T02:13:04;7.78;;;4.95;;
20348;SDS011;10332;50.208;18.988;2023-04-25T02:15:32;5.70;;;4.53;;
20348;SDS011;10332;50.208;18.988;2023-04-25T02:17:59;5.18;;;4.45;;
20348;SDS011;10332;50.208;18.988;2023-04-25T02:20:28;6.35;;;4.32;;
20348;SDS011;10332;50.208;18.988;2023-04-25T02:22:57;5.88;;;4.05;;
20348;SDS011;10332;50.208;18.988;2023-04-25T02:25:24;5.10;;;4.00;;
20348;SDS011;10332;50.208;18.988;2023-04-25T02:27:52;5.55;;;4.25;;
20348;SDS011;10332;50.208;18.988;2023-04-25T02:30:20;4.60;;;3.70;;
20348;SDS011;10332;50.208;18.988;2023-04-25T02:32:48;4.22;;;3.80;;
20348;SDS011;10332;50.208;18.988;2023-04-25T02:35:15;6.57;;;4.35;;
20348;SDS011;10332;50.208;18.988;2023-04-25T02:37:43;6.82;;;5.10;;
20348;SDS011;10332;50.208;18.988;2023-04-25T02:40:10;5.22;;;4.38;;
20348;SDS011;10332;50.208;18.988;2023-04-25T02:42:38;7.82;;;6.35;;
20348;SDS011;10332;50.208;18.988;2023-04-25T02:45:06;6.85;;;5.15;;
20348;SDS011;10332;50.208;18.988;2023-04-25T02:47:34;7.15;;;5.70;;
20348;SDS011;10332;50.208;18.988;2023-04-25T02:50:01;10.70;;;6.68;;
20348;SDS011;10332;50.208;18.988;2023-04-25T02:52:29;13.10;;;7.95;;
20348;SDS011;10332;50.208;18.988;2023-04-25T02:54:59;12.70;;;7.55;;
20348;SDS011;10332;50.208;18.988;2023-04-25T02:57:26;9.13;;;6.38;;
20348;SDS011;10332;50.208;18.988;2023-04-25T02:59:54;10.13;;;6.68;;
20348;SDS011;10332;50.208;18.988;2023-04-25T03:02:22;10.48;;;6.75;;
20348;SDS011;10332;50.208;18.988;2023-04-25T03:04:51;7.70;;;6.03;;
20348;SDS011;10332;50.208;18.988;2023-04-25T03:07:20;6.80;;;5.93;;
20348;SDS011;10332;50.208;18.988;2023-04-25T03:09:48;10.43;;;7.35;;
20348;SDS011;10332;50.208;18.988;2023-04-25T03:12:15;10.65;;;6.65;;
20348;SDS011;10332;50.208;18.988;2023-04-25T03:14:44;7.63;;;5.68;;
20348;SDS011;10332;50.208;18.988;2023-04-25T03:17:13;10.40;;;6.65;;
20348;SDS011;10332;50.208;18.988;2023-04-25T03:19:40;7.65;;;4.45;;
20348;SDS011;10332;50.208;18.988;2023-04-25T03:22:10;5.53;;;3.85;;
20348;SDS011;10332;50.208;18.988;2023-04-25T03:24:40;3.90;;;3.50;;
20348;SDS011;10332;50.208;18.988;2023-04-25T03:27:07;4.97;;;3.90;;
20348;SDS011;10332;50.208;18.988;2023-04-25T03:29:36;4.38;;;3.40;;
20348;SDS011;10332;50.208;18.988;2023-04-25T03:32:03;4.13;;;3.38;;
20348;SDS011;10332;50.208;18.988;2023-04-25T03:34:31;4.47;;;3.40;;
20348;SDS011;10332;50.208;18.988;2023-04-25T03:36:58;4.13;;;3.53;;
20348;SDS011;10332;50.208;18.988;2023-04-25T03:39:26;5.65;;;4.00;;
20348;SDS011;10332;50.208;18.988;2023-04-25T03:41:54;7.18;;;4.18;;
20348;SDS011;10332;50.208;18.988;2023-04-25T03:44:21;5.95;;;4.15;;
20348;SDS011;10332;50.208;18.988;2023-04-25T03:46:50;4.45;;;3.78;;
20348;SDS011;10332;50.208;18.988;2023-04-25T03:49:18;5.10;;;4.03;;
20348;SDS011;10332;50.208;18.988;2023-04-25T03:51:45;7.35;;;4.72;;
20348;SDS011;10332;50.208;18.988;2023-04-25T03:54:14;5.57;;;4.47;;
20348;SDS011;10332;50.208;18.988;2023-04-25T03:56:42;4.70;;;4.20;;
20348;SDS011;10332;50.208;18.988;2023-04-25T03:59:09;4.20;;;3.80;;
20348;SDS011;10332;50.208;18.988;2023-04-25T04:01:37;4.70;;;4.20;;
20348;SDS011;10332;50.208;18.988;2023-04-25T04:04:04;4.72;;;3.80;;
20348;SDS011;10332;50.208;18.988;2023-04-25T04:06:32;3.95;;;3.55;;
20348;SDS011;10332;50.208;18.988;2023-04-25T04:08:59;5.82;;;3.78;;
20348;SDS011;10332;50.208;18.988;2023-04-25T04:11:27;7.47;;;3.50;;
20348;SDS011;10332;50.208;18.988;2023-04-25T04:13:54;5.50;;;4.00;;
20348;SDS011;10332;50.208;18.988;2023-04-25T04:16:21;4.82;;;3.95;;
20348;SDS011;10332;50.208;18.988;2023-04-25T04:18:49;5.35;;;3.58;;
20348;SDS011;10332;50.208;18.988;2023-04-25T04:21:16;8.63;;;5.18;;
20348;SDS011;10332;50.208;18.988;2023-04-25T04:23:44;4.55;;;3.85;;
20348;SDS011;10332;50.208;18.988;2023-04-25T04:26:13;5.65;;;3.60;;
20348;SDS011;10332;50.208;18.988;2023-04-25T04:28:43;4.70;;;3.65;;
20348;SDS011;10332;50.208;18.988;2023-04-25T04:31:13;4.10;;;3.38;;
20348;SDS011;10332;50.208;18.988;2023-04-25T04:33:43;4.53;;;3.17;;
20348;SDS011;10332;50.208;18.988;2023-04-25T04:36:11;3.50;;;3.20;;
20348;SDS011;10332;50.208;18.988;2023-04-25T04:38:39;4.72;;;3.33;;
20348;SDS011;10332;50.208;18.988;2023-04-25T04:41:08;5.35;;;4.05;;
20348;SDS011;10332;50.208;18.988;2023-04-25T04:43:36;10.95;;;4.10;;
20348;SDS011;10332;50.208;18.988;2023-04-25T04:46:03;4.90;;;3.45;;
20348;SDS011;10332;50.208;18.988;2023-04-25T04:48:31;4.32;;;3.92;;
20348;SDS011;10332;50.208;18.988;2023-04-25T04:51:00;3.63;;;3.05;;
20348;SDS011;10332;50.208;18.988;2023-04-25T04:53:28;3.53;;;2.75;;
20348;SDS011;10332;50.208;18.988;2023-04-25T04:55:55;4.18;;;3.50;;
20348;SDS011;10332;50.208;18.988;2023-04-25T04:58:23;3.70;;;3.20;;
20348;SDS011;10332;50.208;18.988;2023-04-25T05:00:50;3.45;;;3.15;;
20348;SDS011;10332;50.208;18.988;2023-04-25T05:03:17;5.03;;;3.63;;
20348;SDS011;10332;50.208;18.988;2023-04-25T05:05:46;4.50;;;3.78;;
20348;SDS011;10332;50.208;18.988;2023-04-25T05:08:13;4.38;;;3.78;;
20348;SDS011;10332;50.208;18.988;2023-04-25T05:10:41;6.85;;;4.40;;
20348;SDS011;10332;50.208;18.988;2023-04-25T05:13:09;4.90;;;3.58;;
20348;SDS011;10332;50.208;18.988;2023-04-25T05:15:36;3.95;;;3.55;;
20348;SDS011;10332;50.208;18.988;2023-04-25T05:18:03;5.13;;;4.30;;
20348;SDS011;10332;50.208;18.988;2023-04-25T05:20:31;4.20;;;3.50;;
20348;SDS011;10332;50.208;18.988;2023-04-25T05:22:59;7.80;;;5.70;;
20348;SDS011;10332;50.208;18.988;2023-04-25T05:25:26;5.82;;;4.47;;
20348;SDS011;10332;50.208;18.988;2023-04-25T05:27:54;5.15;;;3.65;;
20348;SDS011;10332;50.208;18.988;2023-04-25T05:30:21;4.40;;;3.50;;
20348;SDS011;10332;50.208;18.988;2023-04-25T05:32:49;3.97;;;3.33;;
20348;SDS011;10332;50.208;18.988;2023-04-25T05:35:17;4.75;;;3.45;;
20348;SDS011;10332;50.208;18.988;2023-04-25T05:37:44;3.95;;;3.33;;
20348;SDS011;10332;50.208;18.988;2023-04-25T05:40:12;4.47;;;3.55;;
20348;SDS011;10332;50.208;18.988;2023-04-25T05:42:39;4.50;;;3.30;;
20348;SDS011;10332;50.208;18.988;2023-04-25T05:45:07;3.13;;;2.83;;
20348;SDS011;10332;50.208;18.988;2023-04-25T05:47:35;3.65;;;3.00;;
20348;SDS011;10332;50.208;18.988;2023-04-25T05:50:02;3.80;;;3.30;;
20348;SDS011;10332;50.208;18.988;2023-04-25T05:52:30;3.67;;;2.92;;
20348;SDS011;10332;50.208;18.988;2023-04-25T05:54:57;21.48;;;14.38;;
20348;SDS011;10332;50.208;18.988;2023-04-25T05:57:26;11.20;;;7.72;;
20348;SDS011;10332;50.208;18.988;2023-04-25T05:59:54;10.15;;;7.28;;
20348;SDS011;10332;50.208;18.988;2023-04-25T06:02:21;9.85;;;5.93;;
20348;SDS011;10332;50.208;18.988;2023-04-25T06:04:49;7.15;;;5.47;;
20348;SDS011;10332;50.208;18.988;2023-04-25T06:07:21;6.47;;;4.35;;
20348;SDS011;10332;50.208;18.988;2023-04-25T06:09:48;8.85;;;5.13;;
20348;SDS011;10332;50.208;18.988;2023-04-25T06:12:16;9.10;;;6.40;;
20348;SDS011;10332;50.208;18.988;2023-04-25T06:14:43;14.43;;;9.80;;
20348;SDS011;10332;50.208;18.988;2023-04-25T06:17:11;10.95;;;7.35;;
20348;SDS011;10332;50.208;18.988;2023-04-25T06:19:38;12.15;;;8.77;;
20348;SDS011;10332;50.208;18.988;2023-04-25T06:22:06;5.93;;;4.68;;
20348;SDS011;10332;50.208;18.988;2023-04-25T06:24:34;6.20;;;4.25;;
20348;SDS011;10332;50.208;18.988;2023-04-25T06:27:02;7.13;;;4.88;;
20348;SDS011;10332;50.208;18.988;2023-04-25T06:29:29;4.90;;;4.35;;
20348;SDS011;10332;50.208;18.988;2023-04-25T06:31:57;5.38;;;4.05;;
20348;SDS011;10332;50.208;18.988;2023-04-25T06:34:24;8.52;;;4.90;;
20348;SDS011;10332;50.208;18.988;2023-04-25T06:36:52;7.88;;;4.68;;
20348;SDS011;10332;50.208;18.988;2023-04-25T06:39:19;5.10;;;3.45;;
20348;SDS011;10332;50.208;18.988;2023-04-25T06:41:50;5.43;;;4.53;;
20348;SDS011;10332;50.208;18.988;2023-04-25T06:44:17;7.85;;;5.25;;
20348;SDS011;10332;50.208;18.988;2023-04-25T06:46:45;6.18;;;4.53;;
20348;SDS011;10332;50.208;18.988;2023-04-25T06:49:12;4.65;;;3.83;;
20348;SDS011;10332;50.208;18.988;2023-04-25T06:51:40;6.10;;;4.00;;
20348;SDS011;10332;50.208;18.988;2023-04-25T06:54:07;4.43;;;3.70;;
20348;SDS011;10332;50.208;18.988;2023-04-25T06:56:35;6.85;;;4.35;;
20348;SDS011;10332;50.208;18.988;2023-04-25T06:59:02;11.05;;;6.82;;
20348;SDS011;10332;50.208;18.988;2023-04-25T07:01:30;18.27;;;11.02;;
20348;SDS011;10332;50.208;18.988;2023-04-25T07:03:57;6.00;;;4.57;;
20348;SDS011;10332;50.208;18.988;2023-04-25T07:06:25;4.97;;;3.50;;
20348;SDS011;10332;50.208;18.988;2023-04-25T07:08:54;4.20;;;3.60;;
20348;SDS011;10332;50.208;18.988;2023-04-25T07:11:22;4.63;;;3.40;;
20348;SDS011;10332;50.208;18.988;2023-04-25T07:13:49;5.63;;;4.07;;
20348;SDS011;10332;50.208;18.988;2023-04-25T07:16:17;5.63;;;3.88;;
20348;SDS011;10332;50.208;18.988;2023-04-25T07:18:44;5.32;;;4.25;;
20348;SDS011;10332;50.208;18.988;2023-04-25T07:21:12;5.88;;;3.75;;
20348;SDS011;10332;50.208;18.988;2023-04-25T07:23:39;4.60;;;4.00;;
20348;SDS011;10332;50.208;18.988;2023-04-25T07:26:07;4.78;;;3.80;;
20348;SDS011;10332;50.208;18.988;2023-04-25T07:28:34;6.13;;;4.47;;
20348;SDS011;10332;50.208;18.988;2023-04-25T07:31:02;5.30;;;4.32;;
20348;SDS011;10332;50.208;18.988;2023-04-25T07:33:29;4.63;;;3.50;;
20348;SDS011;10332;50.208;18.988;2023-04-25T07:35:57;5.43;;;4.35;;
20348;SDS011;10332;50.208;18.988;2023-04-25T07:38:25;5.60;;;3.65;;
20348;SDS011;10332;50.208;18.988;2023-04-25T07:40:53;5.95;;;3.95;;
20348;SDS011;10332;50.208;18.988;2023-04-25T07:43:20;5.80;;;4.20;;
20348;SDS011;10332;50.208;18.988;2023-04-25T07:45:48;9.95;;;6.32;;
20348;SDS011;10332;50.208;18.988;2023-04-25T07:48:18;13.60;;;10.00;;
20348;SDS011;10332;50.208;18.988;2023-04-25T07:50:46;14.90;;;10.13;;
20348;SDS011;10332;50.208;18.988;2023-04-25T07:53:14;7.25;;;4.70;;
20348;SDS011;10332;50.208;18.988;2023-04-25T07:55:42;5.15;;;4.15;;
20348;SDS011;10332;50.208;18.988;2023-04-25T07:58:10;5.15;;;4.18;;
20348;SDS011;10332;50.208;18.988;2023-04-25T08:00:40;4.93;;;3.88;;
20348;SDS011;10332;50.208;18.988;2023-04-25T08:03:09;7.55;;;4.50;;
20348;SDS011;10332;50.208;18.988;2023-04-25T08:05:37;6.00;;;4.57;;
20348;SDS011;10332;50.208;18.988;2023-04-25T08:08:04;6.15;;;3.90;;
20348;SDS011;10332;50.208;18.988;2023-04-25T08:10:33;4.43;;;3.58;;
20348;SDS011;10332;50.208;18.988;2023-04-25T08:13:01;4.20;;;3.78;;
20348;SDS011;10332;50.208;18.988;2023-04-25T08:15:29;5.32;;;3.90;;
20348;SDS011;10332;50.208;18.988;2023-04-25T08:17:56;5.30;;;4.38;;
20348;SDS011;10332;50.208;18.988;2023-04-25T08:20:24;4.80;;;3.60;;
20348;SDS011;10332;50.208;18.988;2023-04-25T08:22:52;5.78;;;4.13;;
20348;SDS011;10332;50.208;18.988;2023-04-25T08:25:20;4.90;;;3.90;;
20348;SDS011;10332;50.208;18.988;2023-04-25T08:27:47;4.63;;;4.10;;
20348;SDS011;10332;50.208;18.988;2023-04-25T08:30:15;3.90;;;3.55;;
20348;SDS011;10332;50.208;18.988;2023-04-25T08:32:43;20.77;;;14.95;;
20348;SDS011;10332;50.208;18.988;2023-04-25T08:35:10;9.85;;;7.68;;
20348;SDS011;10332;50.208;18.988;2023-04-25T08:37:38;8.60;;;6.30;;
20348;SDS011;10332;50.208;18.988;2023-04-25T08:40:06;4.80;;;3.85;;
20348;SDS011;10332;50.208;18.988;2023-04-25T08:42:38;4.85;;;4.15;;
20348;SDS011;10332;50.208;18.988;2023-04-25T08:45:09;4.68;;;4.15;;
20348;SDS011;10332;50.208;18.988;2023-04-25T08:47:38;6.28;;;4.07;;
20348;SDS011;10332;50.208;18.988;2023-04-25T08:50:07;4.00;;;3.60;;
20348;SDS011;10332;50.208;18.988;2023-04-25T08:52:39;5.35;;;3.97;;
20348;SDS011;10332;50.208;18.988;2023-04-25T08:55:14;3.58;;;2.70;;
20348;SDS011;10332;50.208;18.988;2023-04-25T08:57:43;4.32;;;3.13;;
20348;SDS011;10332;50.208;18.988;2023-04-25T09:00:12;4.28;;;3.55;;
20348;SDS011;10332;50.208;18.988;2023-04-25T09:02:39;5.05;;;3.28;;
20348;SDS011;10332;50.208;18.988;2023-04-25T09:05:11;3.78;;;3.00;;
20348;SDS011;10332;50.208;18.988;2023-04-25T09:07:40;3.85;;;3.40;;
20348;SDS011;10332;50.208;18.988;2023-04-25T09:10:08;3.75;;;3.40;;
20348;SDS011;10332;50.208;18.988;2023-04-25T09:12:36;3.50;;;3.13;;
20348;SDS011;10332;50.208;18.988;2023-04-25T09:15:10;4.25;;;3.10;;
20348;SDS011;10332;50.208;18.988;2023-04-25T09:17:49;4.55;;;3.95;;
20348;SDS011;10332;50.208;18.988;2023-04-25T09:20:23;5.40;;;3.55;;
20348;SDS011;10332;50.208;18.988;2023-04-25T09:23:01;7.60;;;5.57;;
20348;SDS011;10332;50.208;18.988;2023-04-25T09:25:35;21.90;;;15.52;;
20348;SDS011;10332;50.208;18.988;2023-04-25T09:28:05;7.32;;;6.60;;
20348;SDS011;10332;50.208;18.988;2023-04-25T09:30:35;5.80;;;5.05;;
20348;SDS011;10332;50.208;18.988;2023-04-25T09:33:03;5.28;;;4.15;;
20348;SDS011;10332;50.208;18.988;2023-04-25T09:35:39;6.63;;;5.05;;
20348;SDS011;10332;50.208;18.988;2023-04-25T09:38:09;4.78;;;4.10;;
20348;SDS011;10332;50.208;18.988;2023-04-25T09:40:43;4.72;;;3.53;;
20348;SDS011;10332;50.208;18.988;2023-04-25T09:43:24;6.40;;;4.10;;
20348;SDS011;10332;50.208;18.988;2023-04-25T09:45:53;7.43;;;5.53;;
20348;SDS011;10332;50.208;18.988;2023-04-25T09:48:25;5.63;;;4.85;;
20348;SDS011;10332;50.208;18.988;2023-04-25T09:51:13;6.05;;;4.22;;
20348;SDS011;10332;50.208;18.988;2023-04-25T09:53:42;5.90;;;4.80;;
20348;SDS011;10332;50.208;18.988;2023-04-25T09:56:19;4.57;;;4.15;;
20348;SDS011;10332;50.208;18.988;2023-04-25T09:58:48;5.57;;;3.95;;
20348;SDS011;10332;50.208;18.988;2023-04-25T10:01:21;5.50;;;3.85;;
20348;SDS011;10332;50.208;18.988;2023-04-25T10:03:51;4.93;;;3.70;;
20348;SDS011;10332;50.208;18.988;2023-04-25T10:06:25;5.72;;;3.95;;
20348;SDS011;10332;50.208;18.988;2023-04-25T10:08:54;5.90;;;3.95;;
20348;SDS011;10332;50.208;18.988;2023-04-25T10:11:23;9.60;;;7.45;;
20348;SDS011;10332;50.208;18.988;2023-04-25T10:13:53;15.85;;;12.88;;
20348;SDS011;10332;50.208;18.988;2023-04-25T10:16:22;5.30;;;4.40;;
20348;SDS011;10332;50.208;18.988;2023-04-25T10:18:51;8.68;;;4.13;;
20348;SDS011;10332;50.208;18.988;2023-04-25T10:21:19;7.97;;;6.32;;
20348;SDS011;10332;50.208;18.988;2023-04-25T10:23:48;5.88;;;3.17;;
20348;SDS011;10332;50.208;18.988;2023-04-25T10:26:17;5.25;;;3.53;;
20348;SDS011;10332;50.208;18.988;2023-04-25T10:28:55;3.58;;;2.70;;
20348;SDS011;10332;50.208;18.988;2023-04-25T10:31:29;3.75;;;3.03;;
20348;SDS011;10332;50.208;18.988;2023-04-25T10:33:59;3.20;;;2.50;;
20348;SDS011;10332;50.208;18.988;2023-04-25T10:36:30;3.40;;;2.47;;
20348;SDS011;10332;50.208;18.988;2023-04-25T10:39:02;4.07;;;3.13;;
20348;SDS011;10332;50.208;18.988;2023-04-25T10:41:45;3.65;;;2.63;;
20348;SDS011;10332;50.208;18.988;2023-04-25T10:44:27;5.25;;;3.03;;
20348;SDS011;10332;50.208;18.988;2023-04-25T10:46:57;3.47;;;3.10;;
20348;SDS011;10332;50.208;18.988;2023-04-25T10:49:34;4.28;;;3.05;;
20348;SDS011;10332;50.208;18.988;2023-04-25T10:54:49;4.30;;;2.53;;
20348;SDS011;10332;50.208;18.988;2023-04-25T10:57:37;6.15;;;2.88;;
20348;SDS011;10332;50.208;18.988;2023-04-25T11:00:14;4.55;;;2.97;;
20348;SDS011;10332;50.208;18.988;2023-04-25T11:02:51;3.53;;;2.50;;
20348;SDS011;10332;50.208;18.988;2023-04-25T11:08:18;7.65;;;5.80;;
20348;SDS011;10332;50.208;18.988;2023-04-25T11:11:07;4.53;;;3.10;;
20348;SDS011;10332;50.208;18.988;2023-04-25T11:13:35;3.15;;;2.22;;
20348;SDS011;10332;50.208;18.988;2023-04-25T11:16:03;3.15;;;2.40;;
20348;SDS011;10332;50.208;18.988;2023-04-25T11:18:42;3.58;;;2.22;;
20348;SDS011;10332;50.208;18.988;2023-04-25T11:21:11;4.35;;;2.67;;
20348;SDS011;10332;50.208;18.988;2023-04-25T11:23:40;3.25;;;2.15;;
20348;SDS011;10332;50.208;18.988;2023-04-25T11:26:07;4.00;;;2.70;;
20348;SDS011;10332;50.208;18.988;2023-04-25T11:28:35;4.80;;;2.80;;
20348;SDS011;10332;50.208;18.988;2023-04-25T11:31:02;3.28;;;2.55;;
20348;SDS011;10332;50.208;18.988;2023-04-25T11:33:31;8.48;;;5.90;;
20348;SDS011;10332;50.208;18.988;2023-04-25T11:35:58;19.42;;;12.63;;
20348;SDS011;10332;50.208;18.988;2023-04-25T11:38:26;10.73;;;7.32;;
20348;SDS011;10332;50.208;18.988;2023-04-25T11:40:55;5.57;;;4.28;;
20348;SDS011;10332;50.208;18.988;2023-04-25T11:43:23;2.95;;;2.65;;
20348;SDS011;10332;50.208;18.988;2023-04-25T11:45:52;4.63;;;3.20;;
20348;SDS011;10332;50.208;18.988;2023-04-25T11:48:19;3.65;;;2.47;;
20348;SDS011;10332;50.208;18.988;2023-04-25T11:50:53;4.93;;;2.90;;
20348;SDS011;10332;50.208;18.988;2023-04-25T11:53:21;4.45;;;2.80;;
20348;SDS011;10332;50.208;18.988;2023-04-25T11:55:51;3.60;;;2.83;;
20348;SDS011;10332;50.208;18.988;2023-04-25T11:58:19;6.53;;;3.22;;
20348;SDS011;10332;50.208;18.988;2023-04-25T12:00:47;5.57;;;3.13;;
20348;SDS011;10332;50.208;18.988;2023-04-25T12:03:17;10.15;;;6.82;;
20348;SDS011;10332;50.208;18.988;2023-04-25T12:05:45;6.65;;;4.40;;
20348;SDS011;10332;50.208;18.988;2023-04-25T12:08:14;11.38;;;6.65;;
20348;SDS011;10332;50.208;18.988;2023-04-25T12:10:43;5.25;;;3.80;;
20348;SDS011;10332;50.208;18.988;2023-04-25T12:15:54;6.25;;;3.63;;
20348;SDS011;10332;50.208;18.988;2023-04-25T12:18:23;8.27;;;6.38;;
20348;SDS011;10332;50.208;18.988;2023-04-25T12:20:54;8.02;;;6.20;;
20348;SDS011;10332;50.208;18.988;2023-04-25T12:23:26;6.50;;;4.05;;
20348;SDS011;10332;50.208;18.988;2023-04-25T12:25:55;5.65;;;2.90;;
20348;SDS011;10332;50.208;18.988;2023-04-25T12:28:23;4.10;;;2.85;;
20348;SDS011;10332;50.208;18.988;2023-04-25T12:33:36;10.95;;;6.47;;
20348;SDS011;10332;50.208;18.988;2023-04-25T12:36:06;10.13;;;7.13;;
20348;SDS011;10332;50.208;18.988;2023-04-25T12:38:39;4.93;;;3.95;;
20348;SDS011;10332;50.208;18.988;2023-04-25T12:41:08;10.80;;;7.13;;
20348;SDS011;10332;50.208;18.988;2023-04-25T12:43:36;10.02;;;6.97;;
20348;SDS011;10332;50.208;18.988;2023-04-25T12:46:04;7.15;;;5.38;;
20348;SDS011;10332;50.208;18.988;2023-04-25T12:48:31;3.72;;;3.22;;
20348;SDS011;10332;50.208;18.988;2023-04-25T12:50:59;4.53;;;3.40;;
20348;SDS011;10332;50.208;18.988;2023-04-25T12:53:27;4.60;;;3.30;;
20348;SDS011;10332;50.208;18.988;2023-04-25T12:55:54;4.75;;;3.10;;
20348;SDS011;10332;50.208;18.988;2023-04-25T12:58:22;4.80;;;3.45;;
20348;SDS011;10332;50.208;18.988;2023-04-25T13:00:51;5.13;;;3.60;;
20348;SDS011;10332;50.208;18.988;2023-04-25T13:03:18;3.20;;;2.55;;
20348;SDS011;10332;50.208;18.988;2023-04-25T13:05:46;3.63;;;2.97;;
20348;SDS011;10332;50.208;18.988;2023-04-25T13:08:14;6.03;;;3.72;;
20348;SDS011;10332;50.208;18.988;2023-04-25T13:10:41;4.70;;;3.22;;
20348;SDS011;10332;50.208;18.988;2023-04-25T13:13:09;3.65;;;3.00;;
20348;SDS011;10332;50.208;18.988;2023-04-25T13:15:37;4.05;;;3.20;;
20348;SDS011;10332;50.208;18.988;2023-04-25T13:18:04;3.90;;;2.90;;
20348;SDS011;10332;50.208;18.988;2023-04-25T13:20:34;3.03;;;2.72;;
20348;SDS011;10332;50.208;18.988;2023-04-25T13:23:02;3.30;;;2.60;;
20348;SDS011;10332;50.208;18.988;2023-04-25T13:25:29;4.07;;;2.70;;
20348;SDS011;10332;50.208;18.988;2023-04-25T13:27:57;4.93;;;2.78;;
20348;SDS011;10332;50.208;18.988;2023-04-25T13:30:24;7.43;;;3.75;;
20348;SDS011;10332;50.208;18.988;2023-04-25T13:32:53;4.47;;;3.40;;
20348;SDS011;10332;50.208;18.988;2023-04-25T13:35:23;3.88;;;3.28;;
20348;SDS011;10332;50.208;18.988;2023-04-25T13:37:51;4.63;;;3.10;;
20348;SDS011;10332;50.208;18.988;2023-04-25T13:40:18;4.85;;;3.40;;
20348;SDS011;10332;50.208;18.988;2023-04-25T13:42:46;9.23;;;6.55;;
20348;SDS011;10332;50.208;18.988;2023-04-25T13:45:13;11.45;;;8.25;;
20348;SDS011;10332;50.208;18.988;2023-04-25T13:47:41;12.20;;;8.68;;
20348;SDS011;10332;50.208;18.988;2023-04-25T13:50:09;5.45;;;3.90;;
20348;SDS011;10332;50.208;18.988;2023-04-25T13:52:37;5.03;;;4.15;;
20348;SDS011;10332;50.208;18.988;2023-04-25T13:55:04;6.80;;;4.25;;
20348;SDS011;10332;50.208;18.988;2023-04-25T13:57:35;8.50;;;6.35;;
20348;SDS011;10332;50.208;18.988;2023-04-25T14:00:12;5.38;;;4.60;;
20348;SDS011;10332;50.208;18.988;2023-04-25T14:02:41;10.35;;;7.82;;
20348;SDS011;10332;50.208;18.988;2023-04-25T14:05:08;10.70;;;7.53;;
20348;SDS011;10332;50.208;18.988;2023-04-25T14:07:36;9.85;;;7.93;;
20348;SDS011;10332;50.208;18.988;2023-04-25T14:10:04;10.80;;;6.88;;
20348;SDS011;10332;50.208;18.988;2023-04-25T14:12:32;6.03;;;4.60;;
20348;SDS011;10332;50.208;18.988;2023-04-25T14:15:00;6.40;;;4.45;;
20348;SDS011;10332;50.208;18.988;2023-04-25T14:17:27;10.18;;;6.90;;
20348;SDS011;10332;50.208;18.988;2023-04-25T14:19:55;8.05;;;5.55;;
20348;SDS011;10332;50.208;18.988;2023-04-25T14:22:22;5.95;;;4.90;;
20348;SDS011;10332;50.208;18.988;2023-04-25T14:24:50;7.05;;;5.18;;
20348;SDS011;10332;50.208;18.988;2023-04-25T14:27:18;8.07;;;5.78;;
20348;SDS011;10332;50.208;18.988;2023-04-25T14:29:45;8.82;;;5.10;;
20348;SDS011;10332;50.208;18.988;2023-04-25T14:32:13;4.35;;;3.33;;
20348;SDS011;10332;50.208;18.988;2023-04-25T14:34:40;4.03;;;2.92;;
20348;SDS011;10332;50.208;18.988;2023-04-25T14:37:07;6.22;;;4.22;;
20348;SDS011;10332;50.208;18.988;2023-04-25T14:39:35;6.38;;;3.38;;
20348;SDS011;10332;50.208;18.988;2023-04-25T14:42:03;4.40;;;3.10;;
20348;SDS011;10332;50.208;18.988;2023-04-25T14:44:30;4.40;;;3.10;;
20348;SDS011;10332;50.208;18.988;2023-04-25T14:46:58;3.42;;;2.90;;
20348;SDS011;10332;50.208;18.988;2023-04-25T14:49:26;4.05;;;2.80;;
20348;SDS011;10332;50.208;18.988;2023-04-25T14:51:54;4.70;;;2.70;;